createdAt,value
2023-01-26T00:04:29.811Z,1.53
2023-01-26T00:07:22.562Z,1.55
2023-01-26T00:13:45.017Z,1.57
2023-01-26T00:16:30.131Z,1.58
2023-01-26T00:19:29.620Z,1.59
2023-01-26T00:22:26.902Z,1.60
2023-01-26T00:25:07.509Z,1.60
2023-01-26T00:30:59.585Z,1.61
2023-01-26T00:33:31.573Z,1.60
2023-01-26T00:36:30.707Z,1.57
2023-01-26T00:39:26.156Z,1.52
2023-01-26T00:42:22.444Z,1.50
2023-01-26T00:45:21.211Z,1.48
2023-01-26T00:48:13.072Z,1.46
2023-01-26T00:51:08.558Z,1.46
2023-01-26T00:54:04.720Z,1.44
2023-01-26T00:56:54.451Z,1.41
2023-01-26T00:59:37.810Z,1.42
2023-01-26T01:02:22.917Z,1.40
2023-01-26T01:05:23.248Z,1.38
2023-01-26T01:08:23.119Z,1.37
2023-01-26T01:11:28.690Z,1.36
2023-01-26T01:14:32.238Z,1.35
2023-01-26T01:17:26.871Z,1.34
2023-01-26T01:20:33.083Z,1.31
2023-01-26T01:23:11.503Z,1.29
2023-01-26T01:26:07.221Z,1.26
2023-01-26T01:29:10.752Z,1.25
2023-01-26T01:32:14.705Z,1.23
2023-01-26T01:35:32.436Z,1.21
2023-01-26T01:38:24.798Z,1.17
2023-01-26T01:41:27.394Z,1.16
2023-01-26T01:44:30.754Z,1.16
2023-01-26T01:47:34.615Z,1.15
2023-01-26T01:50:33.217Z,1.16
2023-01-26T01:53:29.837Z,1.15
2023-01-26T01:56:33.403Z,1.13
2023-01-26T01:59:31.792Z,1.12
2023-01-26T02:02:26.330Z,1.14
2023-01-26T02:05:13.639Z,1.14
2023-01-26T02:08:08.938Z,1.16
2023-01-26T02:11:20.426Z,1.15
2023-01-26T02:13:53.170Z,1.13
2023-01-26T02:17:04.887Z,1.11
2023-01-26T02:20:08.947Z,1.10
2023-01-26T02:23:20.641Z,1.09
2023-01-26T02:26:15.279Z,1.08
2023-01-26T02:29:19.169Z,1.09
2023-01-26T02:32:37.368Z,1.10
2023-01-26T02:35:36.440Z,1.11
2023-01-26T02:38:41.697Z,1.12
2023-01-26T02:41:55.387Z,1.11
2023-01-26T02:44:51.426Z,1.10
2023-01-26T02:47:46.411Z,1.13
2023-01-26T02:50:53.991Z,1.14
2023-01-26T02:53:35.800Z,1.14
2023-01-26T02:56:29.031Z,1.15
2023-01-26T02:59:36.955Z,1.15
2023-01-26T03:02:46.036Z,1.14
2023-01-26T03:05:54.714Z,1.14
2023-01-26T03:08:50.778Z,1.14
2023-01-26T03:11:55.824Z,1.14
2023-01-26T03:14:46.759Z,1.14
2023-01-26T03:18:33.591Z,1.15
2023-01-26T03:21:30.400Z,1.13
2023-01-26T03:24:42.198Z,1.11
2023-01-26T03:27:44.915Z,1.13
2023-01-26T03:30:55.966Z,1.12
2023-01-26T03:34:07.395Z,1.10
2023-01-26T03:40:40.411Z,1.04
2023-01-26T03:43:49.300Z,1.04
2023-01-26T03:46:59.684Z,1.02
2023-01-26T03:50:09.355Z,1.03
2023-01-26T03:53:35.632Z,1.04
2023-01-26T03:56:34.071Z,1.01
2023-01-26T03:59:46.934Z,1.01
2023-01-26T04:02:58.793Z,1.01
2023-01-26T04:06:15.776Z,1.01
2023-01-26T04:09:09.568Z,1.00
2023-01-26T04:12:02.959Z,1.00
2023-01-26T04:15:15.186Z,0.99
2023-01-26T04:18:09.007Z,0.97
2023-01-26T04:21:20.716Z,0.94
2023-01-26T04:24:17.967Z,0.94
2023-01-26T04:27:16.895Z,0.95
2023-01-26T04:33:21.425Z,0.89
2023-01-26T04:36:14.968Z,0.87
2023-01-26T04:39:11.834Z,0.85
2023-01-26T04:42:12.113Z,0.87
2023-01-26T04:45:13.787Z,0.84
2023-01-26T04:48:06.656Z,0.83
2023-01-26T04:51:05.093Z,0.81
2023-01-26T04:54:13.056Z,0.81
2023-01-26T04:57:15.814Z,0.81
2023-01-26T05:00:12.760Z,0.79
2023-01-26T05:03:07.661Z,0.77
2023-01-26T05:05:49.219Z,0.76
2023-01-26T05:08:50.770Z,0.76
2023-01-26T05:11:45.743Z,0.78
2023-01-26T05:14:53.691Z,0.77
2023-01-26T05:17:57.452Z,0.76
2023-01-26T05:21:07.611Z,0.76
2023-01-26T05:24:02.999Z,0.74
2023-01-26T05:27:13.581Z,0.75
2023-01-26T05:30:20.789Z,0.76
2023-01-26T05:33:13.310Z,0.78
2023-01-26T05:36:14.921Z,0.80
2023-01-26T05:39:07.213Z,0.80
2023-01-26T05:42:24.233Z,0.78
2023-01-26T05:45:31.821Z,0.74
2023-01-26T05:48:30.649Z,0.74
2023-01-26T05:51:05.293Z,0.73
2023-01-26T05:54:07.434Z,0.73
2023-01-26T05:57:08.881Z,0.73
2023-01-26T06:00:01.670Z,0.74
2023-01-26T06:03:05.516Z,0.73
2023-01-26T06:06:20.462Z,0.75
2023-01-26T06:09:37.884Z,0.75
2023-01-26T06:12:51.497Z,0.74
2023-01-26T06:15:56.669Z,0.74
2023-01-26T06:19:04.978Z,0.75
2023-01-26T06:22:12.277Z,0.74
2023-01-26T06:25:24.063Z,0.74
2023-01-26T06:28:19.640Z,0.74
2023-01-26T06:30:52.004Z,0.74
2023-01-26T06:33:25.904Z,0.72
2023-01-26T06:35:57.168Z,0.74
2023-01-26T06:38:27.507Z,0.77
2023-01-26T06:41:03.307Z,0.78
2023-01-26T06:43:35.852Z,0.81
2023-01-26T06:46:07.798Z,0.82
2023-01-26T06:48:39.426Z,0.82
2023-01-26T06:51:47.279Z,0.82
2023-01-26T06:54:20.140Z,0.82
2023-01-26T06:57:11.942Z,0.84
2023-01-26T06:59:56.194Z,0.85
2023-01-26T07:02:41.369Z,0.86
2023-01-26T07:05:12.835Z,0.87
2023-01-26T07:07:44.308Z,0.87
2023-01-26T07:10:16.241Z,0.88
2023-01-26T07:12:47.232Z,0.90
2023-01-26T07:15:17.893Z,0.94
2023-01-26T07:17:49.925Z,0.94
2023-01-26T07:20:20.513Z,0.93
2023-01-26T07:22:51.044Z,0.92
2023-01-26T07:25:21.865Z,0.93
2023-01-26T07:27:58.258Z,0.94
2023-01-26T07:30:31.304Z,0.94
2023-01-26T07:33:04.178Z,0.93
2023-01-26T07:35:34.601Z,0.91
2023-01-26T07:38:08.629Z,0.88
2023-01-26T07:40:39.756Z,0.87
2023-01-26T07:43:12.386Z,0.88
2023-01-26T07:45:55.797Z,0.87
2023-01-26T07:48:26.759Z,0.87
2023-01-26T07:50:58.758Z,0.87
2023-01-26T07:53:34.297Z,0.86
2023-01-26T07:56:13.524Z,0.86
2023-01-26T07:58:45.069Z,0.87
2023-01-26T08:01:16.945Z,0.89
2023-01-26T08:03:53.484Z,0.87
2023-01-26T08:06:25.449Z,0.82
2023-01-26T08:08:56.233Z,0.80
2023-01-26T08:11:26.952Z,0.80
2023-01-26T08:13:59.880Z,0.81
2023-01-26T08:16:30.493Z,0.82
2023-01-26T08:19:01.374Z,0.80
2023-01-26T08:21:31.822Z,0.81
2023-01-26T08:24:03.836Z,0.81
2023-01-26T08:26:37.357Z,0.81
2023-01-26T08:29:07.849Z,0.84
2023-01-26T08:31:38.798Z,0.86
2023-01-26T08:34:09.388Z,0.86
2023-01-26T08:36:42.182Z,0.87
2023-01-26T08:39:13.460Z,0.89
2023-01-26T08:41:44.113Z,0.92
2023-01-26T08:44:14.811Z,0.93
2023-01-26T08:46:46.234Z,0.96
2023-01-26T08:49:16.825Z,0.97
2023-01-26T08:51:49.134Z,0.98
2023-01-26T08:54:20.305Z,0.98
2023-01-26T08:56:50.732Z,0.97
2023-01-26T08:59:28.954Z,0.95
2023-01-26T09:02:00.036Z,0.95
2023-01-26T09:04:30.748Z,0.95
2023-01-26T09:07:01.139Z,0.93
2023-01-26T09:09:32.968Z,0.93
2023-01-26T09:12:04.588Z,0.94
2023-01-26T09:14:35.631Z,0.98
2023-01-26T09:17:05.968Z,0.99
2023-01-26T09:19:36.489Z,0.98
2023-01-26T09:22:06.920Z,0.99
2023-01-26T09:24:37.639Z,0.98
2023-01-26T09:27:08.842Z,1.02
2023-01-26T09:29:39.157Z,1.08
2023-01-26T09:32:15.259Z,1.13
2023-01-26T09:34:46.310Z,1.18
2023-01-26T09:37:21.493Z,1.22
2023-01-26T09:39:51.876Z,1.24
2023-01-26T09:42:44.973Z,1.26
2023-01-26T09:45:28.622Z,1.28
2023-01-26T09:48:18.922Z,1.24
2023-01-26T09:50:56.841Z,1.22
2023-01-26T09:53:39.747Z,1.24
2023-01-26T09:56:17.109Z,1.27
2023-01-26T09:58:51.070Z,1.32
2023-01-26T10:01:38.363Z,1.38
2023-01-26T10:04:19.744Z,1.48
2023-01-26T10:06:54.407Z,1.54
2023-01-26T10:09:48.412Z,1.61
2023-01-26T10:12:24.716Z,1.69
2023-01-26T10:15:03.924Z,1.74
2023-01-26T10:17:39.837Z,1.77
2023-01-26T10:20:19.518Z,1.81
2023-01-26T10:22:53.394Z,1.82
2023-01-26T10:25:31.775Z,1.84
2023-01-26T10:28:03.424Z,1.87
2023-01-26T10:30:34.164Z,1.87
2023-01-26T10:33:15.639Z,1.88
2023-01-26T10:35:47.758Z,1.87
2023-01-26T10:38:45.313Z,1.86
2023-01-26T10:41:44.438Z,1.89
2023-01-26T10:44:34.791Z,1.92
2023-01-26T10:47:18.535Z,1.95
2023-01-26T10:49:48.888Z,1.94
2023-01-26T10:52:23.799Z,1.91
2023-01-26T10:55:11.102Z,1.88
2023-01-26T10:57:46.614Z,1.83
2023-01-26T11:00:26.279Z,1.84
2023-01-26T11:03:08.072Z,1.83
2023-01-26T11:05:38.603Z,1.79
2023-01-26T11:08:35.562Z,1.75
2023-01-26T11:11:10.798Z,1.77
2023-01-26T11:13:45.711Z,1.78
2023-01-26T11:16:43.098Z,1.79
2023-01-26T11:19:21.498Z,1.79
2023-01-26T11:22:05.747Z,1.79
2023-01-26T11:24:42.646Z,1.82
2023-01-26T11:27:32.576Z,1.83
2023-01-26T11:30:20.659Z,1.82
2023-01-26T11:33:05.930Z,1.76
2023-01-26T11:35:48.851Z,1.75
2023-01-26T11:38:37.375Z,1.76
2023-01-26T11:41:29.463Z,1.78
2023-01-26T11:44:31.078Z,1.78
2023-01-26T11:47:17.835Z,1.79
2023-01-26T11:50:10.648Z,1.78
2023-01-26T11:53:00.280Z,1.80
2023-01-26T11:55:50.763Z,1.81
2023-01-26T11:58:34.225Z,1.77
2023-01-26T12:01:10.837Z,1.76
2023-01-26T12:03:47.370Z,1.75
2023-01-26T12:06:23.376Z,1.69
2023-01-26T12:08:59.657Z,1.69
2023-01-26T12:11:36.360Z,1.64
2023-01-26T12:14:20.811Z,1.60
2023-01-26T12:17:20.081Z,1.58
2023-01-26T12:20:00.200Z,1.59
2023-01-26T12:22:34.868Z,1.59
2023-01-26T12:25:21.318Z,1.60
2023-01-26T12:27:57.612Z,1.61
2023-01-26T12:30:46.415Z,1.58
2023-01-26T12:33:17.300Z,1.55
2023-01-26T12:36:28.544Z,1.57
2023-01-26T12:39:10.194Z,1.55
2023-01-26T12:42:00.682Z,1.54
2023-01-26T12:44:40.010Z,1.53
2023-01-26T12:47:25.558Z,1.53
2023-01-26T12:50:01.992Z,1.55
2023-01-26T12:52:39.141Z,1.56
2023-01-26T12:55:17.516Z,1.56
2023-01-26T12:57:53.602Z,1.54
2023-01-26T13:00:33.158Z,1.55
2023-01-26T13:03:14.850Z,1.56
2023-01-26T13:05:58.879Z,1.55
2023-01-26T13:09:04.591Z,1.56
2023-01-26T13:11:47.102Z,1.55
2023-01-26T13:14:34.325Z,1.53
2023-01-26T13:17:49.957Z,1.51
2023-01-26T13:20:52.137Z,1.48
2023-01-26T13:23:54.988Z,1.48
2023-01-26T13:26:50.709Z,1.49
2023-01-26T13:29:36.132Z,1.44
2023-01-26T13:32:58.072Z,1.41
2023-01-26T13:35:31.467Z,1.44
2023-01-26T13:38:12.868Z,1.45
2023-01-26T13:40:46.282Z,1.46
2023-01-26T13:43:27.527Z,1.47
2023-01-26T13:46:21.083Z,1.46
2023-01-26T13:48:54.654Z,1.46
2023-01-26T13:51:27.727Z,1.47
2023-01-26T13:54:14.857Z,1.48
2023-01-26T13:57:04.146Z,1.48
2023-01-26T13:59:34.771Z,1.49
2023-01-26T14:02:12.252Z,1.48
2023-01-26T14:04:57.726Z,1.50
2023-01-26T14:07:32.085Z,1.49
2023-01-26T14:10:03.596Z,1.52
2023-01-26T14:12:44.806Z,1.49
2023-01-26T14:15:26.239Z,1.46
2023-01-26T14:18:00.543Z,1.47
2023-01-26T14:20:33.818Z,1.48
2023-01-26T14:23:18.852Z,1.47
2023-01-26T14:25:58.064Z,1.43
2023-01-26T14:28:32.179Z,1.43
2023-01-26T14:31:09.443Z,1.44
2023-01-26T14:33:42.185Z,1.46
2023-01-26T14:36:19.440Z,1.46
2023-01-26T14:38:52.975Z,1.46
2023-01-26T14:41:26.760Z,1.44
2023-01-26T14:44:01.908Z,1.44
2023-01-26T14:46:40.028Z,1.45
2023-01-26T14:49:16.044Z,1.43
2023-01-26T14:52:04.326Z,1.43
2023-01-26T14:54:39.653Z,1.42
2023-01-26T14:57:13.731Z,1.42
2023-01-26T14:59:44.489Z,1.42
2023-01-26T15:02:21.895Z,1.43
2023-01-26T15:04:56.263Z,1.41
2023-01-26T15:07:48.993Z,1.40
2023-01-26T15:10:35.047Z,1.36
2023-01-26T15:13:19.686Z,1.33
2023-01-26T15:16:04.704Z,1.28
2023-01-26T15:18:36.842Z,1.25
2023-01-26T15:21:16.051Z,1.22
2023-01-26T15:23:50.760Z,1.21
2023-01-26T15:26:33.985Z,1.20
2023-01-26T15:29:19.292Z,1.21
2023-01-26T15:31:54.723Z,1.19
2023-01-26T15:34:36.842Z,1.17
2023-01-26T15:37:30.026Z,1.15
2023-01-26T15:40:01.609Z,1.13
2023-01-26T15:42:33.345Z,1.13
2023-01-26T15:45:05.167Z,1.16
2023-01-26T15:47:35.584Z,1.17
2023-01-26T15:50:09.514Z,1.19
2023-01-26T15:52:41.847Z,1.19
2023-01-26T15:58:10.406Z,1.17
2023-01-26T16:00:45.286Z,1.19
2023-01-26T16:03:20.631Z,1.18
2023-01-26T16:05:54.118Z,1.18
2023-01-26T16:08:24.499Z,1.18
2023-01-26T16:10:56.897Z,1.17
2023-01-26T16:13:27.369Z,1.14
2023-01-26T16:16:14.347Z,1.10
2023-01-26T16:18:48.670Z,1.05
2023-01-26T16:21:22.480Z,1.03
2023-01-26T16:24:05.610Z,1.06
2023-01-26T16:26:38.816Z,1.07
2023-01-26T16:29:14.138Z,1.06
2023-01-26T16:31:46.148Z,1.05
2023-01-26T16:34:18.299Z,1.05
2023-01-26T16:36:54.967Z,1.05
2023-01-26T16:39:28.971Z,1.03
2023-01-26T16:42:01.302Z,1.03
2023-01-26T16:44:35.888Z,1.04
2023-01-26T16:47:08.337Z,1.03
2023-01-26T16:49:39.125Z,1.01
2023-01-26T16:52:12.634Z,0.98
2023-01-26T16:54:45.560Z,0.99
2023-01-26T16:57:15.878Z,0.97
2023-01-26T16:59:52.558Z,0.96
2023-01-26T17:02:41.233Z,0.95
2023-01-26T17:05:18.059Z,0.95
2023-01-26T17:07:51.839Z,0.96
2023-01-26T17:10:24.304Z,0.95
2023-01-26T17:12:55.503Z,0.95
2023-01-26T17:15:28.971Z,0.92
2023-01-26T17:18:02.833Z,0.90
2023-01-26T17:20:33.531Z,0.87
2023-01-26T17:23:06.030Z,0.86
2023-01-26T17:25:40.603Z,0.86
2023-01-26T17:28:11.107Z,0.84
2023-01-26T17:30:48.138Z,0.83
2023-01-26T17:33:21.801Z,0.81
2023-01-26T17:35:59.472Z,0.79
2023-01-26T17:38:34.509Z,0.76
2023-01-26T17:41:05.300Z,0.74
2023-01-26T17:43:38.573Z,0.72
2023-01-26T17:46:12.349Z,0.69
2023-01-26T17:48:45.602Z,0.67
2023-01-26T17:51:23.214Z,0.65
2023-01-26T17:53:54.385Z,0.64
2023-01-26T17:56:25.024Z,0.62
2023-01-26T17:59:02.371Z,0.60
2023-01-26T18:01:34.971Z,0.60
2023-01-26T18:04:05.492Z,0.60
2023-01-26T18:06:38.415Z,0.59
2023-01-26T18:09:08.799Z,0.59
2023-01-26T18:11:40.552Z,0.59
2023-01-26T18:14:10.963Z,0.58
2023-01-26T18:16:41.309Z,0.57
2023-01-26T18:19:12.474Z,0.56
2023-01-26T18:21:44.159Z,0.56
2023-01-26T18:24:15.224Z,0.56
2023-01-26T18:26:45.837Z,0.55
2023-01-26T18:29:19.244Z,0.55
2023-01-26T18:31:53.706Z,0.56
2023-01-26T18:34:28.426Z,0.56
2023-01-26T18:37:00.109Z,0.55
2023-01-26T18:39:31.313Z,0.55
2023-01-26T18:42:04.267Z,0.54
2023-01-26T18:44:35.680Z,0.54
2023-01-26T18:47:08.171Z,0.54
2023-01-26T18:49:40.892Z,0.54
2023-01-26T18:52:12.157Z,0.53
2023-01-26T18:57:28.588Z,0.50
2023-01-26T18:59:59.522Z,0.50
2023-01-26T19:02:33.559Z,0.49
2023-01-26T19:05:04.586Z,0.49
2023-01-26T19:07:44.617Z,0.49
2023-01-26T19:13:00.928Z,0.50
2023-01-26T19:15:32.111Z,0.52
2023-01-26T19:18:03.982Z,0.53
2023-01-26T19:20:34.554Z,0.53
2023-01-26T19:23:06.891Z,0.52
2023-01-26T19:25:42.109Z,0.52
2023-01-26T19:28:15.089Z,0.52
2023-01-26T19:30:46.715Z,0.51
2023-01-26T19:33:29.395Z,0.50
2023-01-26T19:36:06.969Z,0.49
2023-01-26T19:38:41.985Z,0.50
2023-01-26T19:45:25.682Z,0.53
2023-01-26T19:48:32.808Z,0.52
2023-01-26T19:55:09.403Z,0.54
2023-01-26T19:58:05.498Z,0.56
2023-01-26T20:03:52.370Z,0.60
2023-01-26T20:06:44.236Z,0.62
2023-01-26T20:09:58.358Z,0.64
2023-01-26T20:16:31.518Z,0.67
2023-01-26T20:19:48.562Z,0.69
2023-01-26T20:22:26.208Z,0.72
2023-01-26T20:28:36.426Z,0.75
2023-01-26T20:31:19.281Z,0.75
2023-01-26T20:33:53.340Z,0.74
2023-01-26T20:36:33.388Z,0.71
2023-01-26T20:39:04.724Z,0.70
2023-01-26T20:44:31.985Z,0.68
2023-01-26T20:47:02.836Z,0.66
2023-01-26T20:49:40.536Z,0.64
2023-01-26T20:52:12.139Z,0.62
2023-01-26T20:54:42.668Z,0.58
2023-01-26T20:57:16.388Z,0.56
2023-01-26T20:59:49.090Z,0.53
2023-01-26T21:02:23.341Z,0.52
2023-01-26T21:04:54.595Z,0.50
2023-01-26T21:07:28.352Z,0.49
2023-01-26T21:10:02.073Z,0.48
2023-01-26T21:12:34.567Z,0.46
2023-01-26T21:15:05.804Z,0.44
2023-01-26T21:17:39.739Z,0.42
2023-01-26T21:20:24.131Z,0.40
2023-01-26T21:22:59.866Z,0.39
2023-01-26T21:25:34.884Z,0.39
2023-01-26T21:28:14.040Z,0.37
2023-01-26T21:30:44.834Z,0.36
2023-01-26T21:33:17.922Z,0.34
2023-01-26T21:35:56.207Z,0.32
2023-01-26T21:38:27.582Z,0.32
2023-01-26T21:41:05.664Z,0.32
2023-01-26T21:43:36.679Z,0.33
2023-01-26T21:46:07.878Z,0.32
2023-01-26T21:48:42.767Z,0.32
2023-01-26T21:51:31.655Z,0.30
2023-01-26T21:54:02.467Z,0.28
2023-01-26T21:56:33.917Z,0.28
2023-01-26T21:59:12.241Z,0.28
2023-01-26T22:01:45.581Z,0.28
2023-01-26T22:04:25.635Z,0.28
2023-01-26T22:06:59.769Z,0.28
2023-01-26T22:09:41.656Z,0.27
2023-01-26T22:12:12.168Z,0.27
2023-01-26T22:14:42.492Z,0.27
2023-01-26T22:17:15.232Z,0.28
2023-01-26T22:19:49.625Z,0.27
2023-01-26T22:22:21.677Z,0.26
2023-01-26T22:24:53.576Z,0.24
2023-01-26T22:27:23.996Z,0.24
2023-01-26T22:29:56.364Z,0.22
2023-01-26T22:32:27.699Z,0.22
2023-01-26T22:34:59.188Z,0.20
2023-01-26T22:37:29.627Z,0.20
2023-01-26T22:40:00.868Z,0.19
2023-01-26T22:42:39.817Z,0.19
2023-01-26T22:45:12.712Z,0.18
2023-01-26T22:47:43.643Z,0.18
2023-01-26T22:50:16.147Z,0.17
2023-01-26T22:52:48.944Z,0.15
2023-01-26T22:55:25.030Z,0.15
2023-01-26T22:57:55.409Z,0.14
2023-01-26T23:00:27.475Z,0.13
2023-01-26T23:03:09.544Z,0.12
2023-01-26T23:05:40.165Z,0.11
2023-01-26T23:08:10.682Z,0.09
2023-01-26T23:10:41.524Z,0.07
2023-01-26T23:13:11.844Z,0.07
2023-01-26T23:15:45.711Z,0.07
2023-01-26T23:18:20.762Z,0.06
2023-01-26T23:20:58.552Z,0.05
2023-01-26T23:23:30.575Z,0.04
2023-01-26T23:26:01.873Z,0.02
2023-01-26T23:28:34.149Z,0.04
2023-01-26T23:31:05.858Z,0.04
2023-01-26T23:33:37.403Z,0.02
2023-01-26T23:36:10.433Z,0.02
2023-01-26T23:38:46.352Z,0.03
2023-01-26T23:41:16.688Z,0.03
2023-01-26T23:43:47.557Z,0.03
2023-01-26T23:46:18.734Z,0.04
2023-01-26T23:48:50.585Z,0.04
2023-01-26T23:51:22.953Z,0.03
2023-01-26T23:53:56.980Z,0.04
2023-01-26T23:56:27.913Z,0.03
2023-01-26T23:58:59.429Z,0.03
